Terminal Aerodrome Forecast
Issued by NWS

Home | Current Version | Previous Version | Text Only | Print | Product List | Glossary On
Versions: 1 2 3 4 5 6 7 8 9 10 11 12 13 14 15 16 17 18 19 20 21 22 23 24 25 26 27 28 29 30 31
000
FTUS46 KEKA 052338
TAFCEC
TAF
KCEC 052338Z 0600/0624 33019G27KT P6SM FEW250
     FM060600 34013G18KT P6SM FEW015 SCT250
     FM061000 36010G15KT P6SM SCT250
     FM061600 33012G20KT P6SM SCT250
     FM062100 33022G32KT P6SM SCT250=

USA.gov is the U.S. government's official web portal to all federal, state and local government web resources and services.